Jacksonville Naval Air Station
KNIP : now visible

Airfield :











YOU CAN JOIN US ON...

 
LOGIN :

Register | Disclaimer

   EN    FR    IT 

 









Legend :    VFR   Marginal VFR   IFR   Intensive IFR   Very Intensive IFR
Visi :
Ceiling :
>= 8 km
>= 3000ft
5 to 8 km
1000 to 3000 ft
1500m to 5 km
500 to 1000 ft
800 to 1500m
200 to 500 ft
< 800m
< 200 ft
Symbols :   Thunderstorms  Fog  Heavy snow  Heavy precipitations  Wind > 20 kt






- Airport Elevation : 21 ft


KNIP - Jacksonville Naval Air Station

CURRENT METAR :
  • 141053Z 23005KT 10SM SCT250 18/16 A3013 RMK AO2 SLP198 T01780156

EXPIRED METARs :
  • 140953Z 25004KT 10SM FEW250 17/16 A3011 RMK AO2 SLP192 T01720156
  • 140853Z 26003KT 10SM BKN250 17/16 A3009 RMK AO2 SLP186 T01720156 56006

TAF TAF KNIP
Valid from the 14 at 07:00 until the 15 at 07:00 UTC


1407/1507 18007KT 9999 BKN250 QNH3004INS
FM141800 20009KT 9999 SCT040 BKN250 QNH3009INS
BECMG 1421/1423 17010G22KT 9999 FEW040 SCT250 QNH2995INS
FM150600 24008KT 9999 SCT080 BKN270 QNH2990INS T18/1411Z T29/1420Z FN00216
KZJX FIR / North America



MET'MAP, your aeronautical weather chart ! - Copyright ORBIFLY December 2007 - Disclaimer

ORBIFLY MET'MAP TEAM :

Programming & Development : Alexandra Zaïnal
Concept & original design : Baudouin d'Aumeries
Assistance for programming : Marc-Olivier Méhu
Technical & hardware support : Manuel Goepfert

Contact : metmap@orbifly.com




SOURCES & CREDITS :

   NOAA       Earth
Advisory